Time;durP1;ratioP1;P1;durP2;ratioP2;P2;SDS_P1;SDS_P2;PMS_P1;PMS_P2;Temp;Humidity;BMP_temperature;BMP_pressure;BME280_temperature;BME280_humidity;BME280_pressure;Samples;Min_cycle;Max_cycle;Signal;HPM_P1;HPM_P2
2023/01/11 00:01:17;;;;;;;0.10;0.10;;;;;;;;;;4949544;28;20055;-81
2023/01/11 00:03:43;;;;;;;0.10;0.10;;;;;;;;;;4956849;28;20073;-83
2023/01/11 00:06:10;;;;;;;0.10;0.10;;;;;;;;;;4961140;28;20097;-81
2023/01/11 00:08:37;;;;;;;0.10;0.10;;;;;;;;;;4943268;28;20049;-83
2023/01/11 00:11:03;;;;;;;0.10;0.10;;;;;;;;;;4942732;28;20064;-82
2023/01/11 00:13:30;;;;;;;0.10;0.10;;;;;;;;;;4958116;28;20046;-82
2023/01/11 00:15:56;;;;;;;0.28;0.28;;;;;;;;;;4957550;28;20042;-82
2023/01/11 00:18:22;;;;;;;1.55;1.45;;;;;;;;;;4981458;28;20038;-82
2023/01/11 00:20:48;;;;;;;0.10;0.10;;;;;;;;;;4959714;28;20484;-82
2023/01/11 00:23:14;;;;;;;0.65;0.45;;;;;;;;;;4959450;28;20660;-82
2023/01/11 00:25:40;;;;;;;0.10;0.10;;;;;;;;;;4958522;28;20128;-82
2023/01/11 00:28:06;;;;;;;0.10;0.10;;;;;;;;;;4959385;28;20126;-84
2023/01/11 00:30:34;;;;;;;0.10;0.10;;;;;;;;;;4958555;28;20309;-83
2023/01/11 00:33:00;;;;;;;0.10;0.10;;;;;;;;;;4959390;28;20054;-83
2023/01/11 00:35:26;;;;;;;0.10;0.10;;;;;;;;;;4959483;28;20430;-83
2023/01/11 00:37:53;;;;;;;0.10;0.10;;;;;;;;;;4981614;28;20049;-82
2023/01/11 00:40:20;;;;;;;0.10;0.10;;;;;;;;;;4958861;28;20076;-83
2023/01/11 00:48:15;;;;;;;0.10;0.10;;;;;;;;;;4989481;28;20093;-83
2023/01/11 00:50:41;;;;;;;0.10;0.10;;;;;;;;;;4955838;28;20510;-83
2023/01/11 00:53:08;;;;;;;0.10;0.10;;;;;;;;;;4957292;28;20382;-84
2023/01/11 00:55:35;;;;;;;0.10;0.10;;;;;;;;;;4957113;28;20056;-83
2023/01/11 00:58:01;;;;;;;0.10;0.10;;;;;;;;;;4957271;28;20096;-82
2023/01/11 01:00:28;;;;;;;0.10;0.10;;;;;;;;;;4947468;28;20151;-82
2023/01/11 01:02:54;;;;;;;0.10;0.10;;;;;;;;;;4959618;28;20050;-82
2023/01/11 01:05:21;;;;;;;0.10;0.10;;;;;;;;;;4958042;28;20412;-83
2023/01/11 01:07:47;;;;;;;0.10;0.10;;;;;;;;;;4948696;28;20507;-83
2023/01/11 01:10:16;;;;;;;0.10;0.10;;;;;;;;;;4957162;28;20042;-82
2023/01/11 01:15:27;;;;;;;0.10;0.10;;;;;;;;;;4962047;28;20069;-83
2023/01/11 01:17:54;;;;;;;0.10;0.10;;;;;;;;;;4963142;28;20095;-84
2023/01/11 01:20:20;;;;;;;0.10;0.10;;;;;;;;;;4977064;28;20051;-83
2023/01/11 01:22:46;;;;;;;0.10;0.10;;;;;;;;;;4952232;28;20125;-83
2023/01/11 01:25:12;;;;;;;0.55;0.55;;;;;;;;;;4962527;28;20125;-84
2023/01/11 01:27:39;;;;;;;0.10;0.10;;;;;;;;;;4960502;28;20268;-83
2023/01/11 01:30:05;;;;;;;0.20;0.20;;;;;;;;;;4960163;28;20111;-82
2023/01/11 01:32:31;;;;;;;0.10;0.10;;;;;;;;;;4961018;28;20439;-83
2023/01/11 01:34:57;;;;;;;0.10;0.10;;;;;;;;;;4960406;28;20576;-83
2023/01/11 01:37:23;;;;;;;0.00;0.00;;;;;;;;;;4960724;28;21056;-82
2023/01/11 01:39:49;;;;;;;0.20;0.20;;;;;;;;;;4960546;28;20053;-83
2023/01/11 01:42:17;;;;;;;0.10;0.10;;;;;;;;;;4949731;28;20049;-83
2023/01/11 01:45:00;;;;;;;0.10;0.10;;;;;;;;;;4959201;28;20372;-83
2023/01/11 01:47:26;;;;;;;0.10;0.10;;;;;;;;;;4959246;28;20046;-85
2023/01/11 01:49:52;;;;;;;0.00;0.00;;;;;;;;;;4960632;28;20057;-84
2023/01/11 01:52:18;;;;;;;0.10;0.10;;;;;;;;;;4961190;28;20189;-82
2023/01/11 01:54:46;;;;;;;0.10;0.10;;;;;;;;;;4973056;28;20104;-83
2023/01/11 01:57:15;;;;;;;0.10;0.10;;;;;;;;;;4950631;28;20500;-82
2023/01/11 01:59:41;;;;;;;0.10;0.10;;;;;;;;;;4994120;28;20557;-83
2023/01/11 02:02:08;;;;;;;0.10;0.10;;;;;;;;;;4959135;28;20050;-83
2023/01/11 02:04:39;;;;;;;0.10;0.10;;;;;;;;;;4960657;28;20425;-83
2023/01/11 02:07:08;;;;;;;0.10;0.10;;;;;;;;;;4943885;28;20449;-82
2023/01/11 02:09:37;;;;;;;0.10;0.10;;;;;;;;;;4960380;28;20078;-82
2023/01/11 02:12:05;;;;;;;0.10;0.10;;;;;;;;;;4960101;28;20042;-83
2023/01/11 02:14:31;;;;;;;0.10;0.10;;;;;;;;;;4958855;28;20111;-83
2023/01/11 02:16:57;;;;;;;0.15;0.15;;;;;;;;;;4975339;28;20070;-83
2023/01/11 02:19:29;;;;;;;0.20;0.20;;;;;;;;;;4958638;28;20057;-82
2023/01/11 02:22:17;;;;;;;0.10;0.10;;;;;;;;;;4975877;28;20571;-83
2023/01/11 02:25:02;;;;;;;0.00;0.00;;;;;;;;;;4959220;28;20102;-83
2023/01/11 02:27:47;;;;;;;0.10;0.10;;;;;;;;;;4983104;28;20046;-82
2023/01/11 02:30:24;;;;;;;0.10;0.10;;;;;;;;;;4949073;28;20512;-82
2023/01/11 02:33:09;;;;;;;0.10;0.10;;;;;;;;;;4944570;28;20042;-82
2023/01/11 02:35:54;;;;;;;0.10;0.10;;;;;;;;;;4959893;28;20099;-82
2023/01/11 02:38:25;;;;;;;0.10;0.10;;;;;;;;;;4942644;28;20502;-82
2023/01/11 02:41:13;;;;;;;0.10;0.10;;;;;;;;;;4960186;28;20045;-82
2023/01/11 02:46:58;;;;;;;0.10;0.10;;;;;;;;;;4959177;28;20106;-82
2023/01/11 02:49:30;;;;;;;0.10;0.10;;;;;;;;;;4991013;28;20042;-82
2023/01/11 02:52:02;;;;;;;0.10;0.10;;;;;;;;;;4948926;28;20476;-82
2023/01/11 02:54:29;;;;;;;0.10;0.10;;;;;;;;;;4958139;28;20113;-83
2023/01/11 02:56:59;;;;;;;0.10;0.10;;;;;;;;;;4977131;28;20049;-83
2023/01/11 02:59:30;;;;;;;0.10;0.10;;;;;;;;;;4958831;28;20053;-82
2023/01/11 03:01:58;;;;;;;0.00;0.00;;;;;;;;;;4960443;28;20049;-82
2023/01/11 03:04:35;;;;;;;0.10;0.10;;;;;;;;;;4959993;28;20174;-82
2023/01/11 03:07:21;;;;;;;0.10;0.10;;;;;;;;;;4960521;28;20042;-81
2023/01/11 03:09:56;;;;;;;0.10;0.10;;;;;;;;;;4959785;28;20053;-81
2023/01/11 03:15:21;;;;;;;0.00;0.00;;;;;;;;;;4956945;28;20582;-83
2023/01/11 03:17:56;;;;;;;0.10;0.10;;;;;;;;;;4959013;28;20124;-82
2023/01/11 03:20:37;;;;;;;0.10;0.10;;;;;;;;;;4948864;28;20049;-81
2023/01/11 03:23:03;;;;;;;0.10;0.10;;;;;;;;;;4958169;28;20412;-82
2023/01/11 03:25:48;;;;;;;0.10;0.10;;;;;;;;;;4960013;28;20042;-82
2023/01/11 03:28:25;;;;;;;0.00;0.00;;;;;;;;;;4958364;28;20054;-82
2023/01/11 03:30:54;;;;;;;0.00;0.00;;;;;;;;;;4979532;28;20584;-82
2023/01/11 03:33:32;;;;;;;0.10;0.10;;;;;;;;;;4958595;28;20126;-81
2023/01/11 03:36:02;;;;;;;0.30;0.30;;;;;;;;;;4991477;28;21130;-82
2023/01/11 03:38:32;;;;;;;0.00;0.00;;;;;;;;;;4957324;28;20166;-83
2023/01/11 03:41:03;;;;;;;0.10;0.10;;;;;;;;;;4957458;28;20433;-82
2023/01/11 03:43:30;;;;;;;0.10;0.10;;;;;;;;;;4942445;28;20046;-82
2023/01/11 03:45:56;;;;;;;0.10;0.10;;;;;;;;;;4958140;28;20058;-82
2023/01/11 03:48:31;;;;;;;0.10;0.10;;;;;;;;;;4955911;28;20048;-83
2023/01/11 03:50:59;;;;;;;0.10;0.10;;;;;;;;;;4956230;28;20045;-82
2023/01/11 03:53:27;;;;;;;0.10;0.10;;;;;;;;;;4941100;28;20069;-82
2023/01/11 03:55:55;;;;;;;0.10;0.10;;;;;;;;;;4973831;28;20045;-82
2023/01/11 03:58:21;;;;;;;0.00;0.00;;;;;;;;;;4959616;28;20108;-81
2023/01/11 04:00:48;;;;;;;0.13;0.13;;;;;;;;;;4957619;28;20047;-82
2023/01/11 04:03:15;;;;;;;0.10;0.10;;;;;;;;;;4958444;28;20034;-81
2023/01/11 04:05:42;;;;;;;0.10;0.10;;;;;;;;;;4943516;28;20038;-82
2023/01/11 04:08:10;;;;;;;0.75;0.75;;;;;;;;;;4956322;28;20280;-82
2023/01/11 04:10:36;;;;;;;0.00;0.00;;;;;;;;;;4957775;28;20073;-82
2023/01/11 04:13:02;;;;;;;0.10;0.10;;;;;;;;;;4957986;28;20042;-83
2023/01/11 04:15:30;;;;;;;0.10;0.10;;;;;;;;;;4958353;28;20050;-84
2023/01/11 04:18:03;;;;;;;0.10;0.10;;;;;;;;;;4957792;28;20587;-83
2023/01/11 04:20:30;;;;;;;0.10;0.10;;;;;;;;;;4957780;28;20046;-82
2023/01/11 04:22:56;;;;;;;0.10;0.10;;;;;;;;;;4957663;28;20046;-82
2023/01/11 04:25:22;;;;;;;0.10;0.10;;;;;;;;;;4945958;28;20053;-81
2023/01/11 04:27:48;;;;;;;0.10;0.10;;;;;;;;;;4957954;28;20049;-82
2023/01/11 04:30:14;;;;;;;0.10;0.10;;;;;;;;;;4960238;28;20038;-82
2023/01/11 04:32:40;;;;;;;0.00;0.00;;;;;;;;;;4957107;28;20046;-81
2023/01/11 04:35:06;;;;;;;0.30;0.30;;;;;;;;;;4956971;28;20045;-82
2023/01/11 04:37:32;;;;;;;0.40;0.40;;;;;;;;;;4956923;28;20119;-82
2023/01/11 04:39:58;;;;;;;0.10;0.10;;;;;;;;;;4958629;28;20095;-82
2023/01/11 04:42:24;;;;;;;0.40;0.40;;;;;;;;;;4960120;28;20042;-82
2023/01/11 04:44:51;;;;;;;0.10;0.10;;;;;;;;;;4958908;28;20054;-81
2023/01/11 04:47:18;;;;;;;0.00;0.00;;;;;;;;;;4974233;28;20119;-81
2023/01/11 04:49:44;;;;;;;0.22;0.22;;;;;;;;;;4945499;28;20871;-81
2023/01/11 04:52:11;;;;;;;0.40;0.40;;;;;;;;;;4958894;28;20103;-82
2023/01/11 04:54:38;;;;;;;0.10;0.10;;;;;;;;;;4950779;28;20162;-83
2023/01/11 04:57:04;;;;;;;0.10;0.10;;;;;;;;;;4959634;28;20500;-82
2023/01/11 04:59:30;;;;;;;0.10;0.10;;;;;;;;;;4951029;28;20519;-82
2023/01/11 05:01:56;;;;;;;0.00;0.00;;;;;;;;;;4959634;28;20053;-82
2023/01/11 05:04:22;;;;;;;0.10;0.10;;;;;;;;;;4957432;28;20077;-81
2023/01/11 05:06:48;;;;;;;0.10;0.10;;;;;;;;;;4963740;28;20356;-81
2023/01/11 05:09:15;;;;;;;0.05;0.05;;;;;;;;;;4989583;28;20453;-82
2023/01/11 05:11:41;;;;;;;0.10;0.10;;;;;;;;;;4956327;28;20038;-82
2023/01/11 05:14:07;;;;;;;0.10;0.10;;;;;;;;;;4970351;28;20095;-82
2023/01/11 05:16:34;;;;;;;0.10;0.10;;;;;;;;;;4963494;28;20729;-83
2023/01/11 05:19:00;;;;;;;0.03;0.03;;;;;;;;;;4975734;28;20078;-82
2023/01/11 05:21:30;;;;;;;0.10;0.10;;;;;;;;;;4973687;28;20049;-81
2023/01/11 05:23:56;;;;;;;0.10;0.10;;;;;;;;;;4973156;28;20076;-81
2023/01/11 05:26:28;;;;;;;0.10;0.10;;;;;;;;;;4976348;28;20050;-81
2023/01/11 05:29:04;;;;;;;0.10;0.10;;;;;;;;;;4961632;28;20061;-82
2023/01/11 05:31:31;;;;;;;0.00;0.00;;;;;;;;;;4959145;28;20046;-81
2023/01/11 05:33:58;;;;;;;0.10;0.10;;;;;;;;;;4959326;28;20720;-81
2023/01/11 05:36:25;;;;;;;0.10;0.10;;;;;;;;;;4957297;28;20042;-81
2023/01/11 05:38:52;;;;;;;0.10;0.10;;;;;;;;;;4957595;28;20493;-81
2023/01/11 05:41:19;;;;;;;0.20;0.20;;;;;;;;;;4945662;28;20057;-81
2023/01/11 05:46:30;;;;;;;0.10;0.10;;;;;;;;;;4957197;28;20145;-81
2023/01/11 05:48:57;;;;;;;0.10;0.10;;;;;;;;;;4959143;28;20050;-81
2023/01/11 05:51:24;;;;;;;0.10;0.10;;;;;;;;;;4950192;28;20075;-81
2023/01/11 05:53:52;;;;;;;0.10;0.10;;;;;;;;;;4965273;28;20192;-81
2023/01/11 05:56:19;;;;;;;0.10;0.10;;;;;;;;;;4975221;28;20050;-80
2023/01/11 05:58:48;;;;;;;0.10;0.10;;;;;;;;;;4967336;28;20374;-79
2023/01/11 06:01:14;;;;;;;0.20;0.20;;;;;;;;;;4971438;28;20049;-82
2023/01/11 06:03:40;;;;;;;0.10;0.10;;;;;;;;;;4973153;28;20072;-82
2023/01/11 06:06:06;;;;;;;0.10;0.10;;;;;;;;;;4970721;28;20054;-85
2023/01/11 06:08:32;;;;;;;0.10;0.10;;;;;;;;;;4957278;28;20051;-84
2023/01/11 06:10:59;;;;;;;0.10;0.10;;;;;;;;;;4991169;28;20184;-83
2023/01/11 06:13:25;;;;;;;0.10;0.10;;;;;;;;;;4958476;28;20045;-82
2023/01/11 06:15:51;;;;;;;0.10;0.10;;;;;;;;;;4955424;28;20046;-83
2023/01/11 06:18:17;;;;;;;0.10;0.10;;;;;;;;;;4989828;28;20073;-83
2023/01/11 06:20:43;;;;;;;0.10;0.10;;;;;;;;;;4958976;28;20058;-84
2023/01/11 06:23:09;;;;;;;0.15;0.15;;;;;;;;;;4991138;28;20100;-80
2023/01/11 06:25:36;;;;;;;1.35;1.20;;;;;;;;;;4958367;28;20110;-79
2023/01/11 06:28:03;;;;;;;0.00;0.00;;;;;;;;;;4957791;28;20049;-81
2023/01/11 06:30:29;;;;;;;0.10;0.10;;;;;;;;;;4957030;28;20057;-80
2023/01/11 06:33:04;;;;;;;0.90;0.90;;;;;;;;;;4956390;28;20052;-80
2023/01/11 06:35:30;;;;;;;0.10;0.10;;;;;;;;;;4957605;28;20041;-81
2023/01/11 06:37:56;;;;;;;0.10;0.10;;;;;;;;;;4954168;28;20080;-79
2023/01/11 06:40:22;;;;;;;0.10;0.10;;;;;;;;;;4958402;28;20054;-80
2023/01/11 06:42:48;;;;;;;0.10;0.10;;;;;;;;;;4957579;28;20042;-79
2023/01/11 06:45:14;;;;;;;0.10;0.10;;;;;;;;;;4959578;28;20058;-80
2023/01/11 06:47:40;;;;;;;0.10;0.10;;;;;;;;;;4949716;28;20058;-80
2023/01/11 06:50:06;;;;;;;0.10;0.10;;;;;;;;;;4977966;28;20037;-80
2023/01/11 06:52:32;;;;;;;0.10;0.10;;;;;;;;;;4958818;28;20125;-80
2023/01/11 06:54:58;;;;;;;0.10;0.10;;;;;;;;;;4958482;28;20458;-80
2023/01/11 06:57:24;;;;;;;0.10;0.10;;;;;;;;;;5014447;28;20056;-80
2023/01/11 06:59:50;;;;;;;0.10;0.10;;;;;;;;;;4960612;28;20054;-80
2023/01/11 07:02:17;;;;;;;1.85;1.75;;;;;;;;;;4978794;28;21628;-81
2023/01/11 07:04:43;;;;;;;0.10;0.10;;;;;;;;;;4959510;28;20503;-81
2023/01/11 07:07:09;;;;;;;0.10;0.10;;;;;;;;;;4958060;28;20054;-79
2023/01/11 07:09:35;;;;;;;0.77;0.77;;;;;;;;;;4978041;28;20192;-81
2023/01/11 07:12:01;;;;;;;0.10;0.10;;;;;;;;;;4956945;28;20049;-80
2023/01/11 07:14:28;;;;;;;0.10;0.10;;;;;;;;;;4958357;28;20050;-81
2023/01/11 07:16:54;;;;;;;0.10;0.10;;;;;;;;;;4959333;28;20050;-80
2023/01/11 07:19:20;;;;;;;0.10;0.10;;;;;;;;;;4958056;28;20122;-81
2023/01/11 07:21:46;;;;;;;0.10;0.10;;;;;;;;;;4957376;28;20070;-80
2023/01/11 07:24:12;;;;;;;0.10;0.10;;;;;;;;;;4956996;28;20050;-80
2023/01/11 07:26:40;;;;;;;0.10;0.10;;;;;;;;;;4957674;28;20045;-83
2023/01/11 07:29:09;;;;;;;0.20;0.20;;;;;;;;;;4976213;28;20151;-76
2023/01/11 07:31:35;;;;;;;0.10;0.10;;;;;;;;;;4976424;28;20046;-77
2023/01/11 07:34:02;;;;;;;0.63;0.63;;;;;;;;;;4957640;28;20507;-75
2023/01/11 07:36:28;;;;;;;0.10;0.10;;;;;;;;;;4957955;28;20185;-74
2023/01/11 07:38:55;;;;;;;2.08;1.40;;;;;;;;;;4974621;28;20053;-77
2023/01/11 07:44:06;;;;;;;0.10;0.10;;;;;;;;;;4959007;28;20080;-78
2023/01/11 07:46:32;;;;;;;0.10;0.10;;;;;;;;;;4957537;28;20501;-79
2023/01/11 07:48:58;;;;;;;0.10;0.10;;;;;;;;;;4946373;28;20083;-79
2023/01/11 07:51:24;;;;;;;0.10;0.10;;;;;;;;;;4957821;28;20098;-79
2023/01/11 07:53:50;;;;;;;0.10;0.10;;;;;;;;;;4956693;28;20089;-79
2023/01/11 07:56:16;;;;;;;0.10;0.10;;;;;;;;;;4957176;28;20567;-78
2023/01/11 07:58:42;;;;;;;0.10;0.10;;;;;;;;;;4955986;28;20061;-79
2023/01/11 08:01:08;;;;;;;0.10;0.10;;;;;;;;;;4957922;28;20078;-80
2023/01/11 08:03:35;;;;;;;0.10;0.10;;;;;;;;;;4957757;28;20115;-79
2023/01/11 08:06:01;;;;;;;0.10;0.10;;;;;;;;;;4956818;28;20049;-79
2023/01/11 08:08:27;;;;;;;0.10;0.10;;;;;;;;;;4946034;28;20042;-77
2023/01/11 08:16:23;;;;;;;0.10;0.10;;;;;;;;;;4958180;28;20667;-79
2023/01/11 08:18:50;;;;;;;0.10;0.10;;;;;;;;;;4956954;28;20042;-76
2023/01/11 08:21:17;;;;;;;0.20;0.20;;;;;;;;;;4976010;28;20125;-76
2023/01/11 08:23:43;;;;;;;0.10;0.10;;;;;;;;;;4976945;28;20050;-77
2023/01/11 08:26:09;;;;;;;0.10;0.10;;;;;;;;;;4944842;28;20612;-78
2023/01/11 08:28:35;;;;;;;0.10;0.10;;;;;;;;;;4988842;28;20042;-78
2023/01/11 08:31:06;;;;;;;0.10;0.10;;;;;;;;;;4955836;28;20071;-75
2023/01/11 08:33:32;;;;;;;0.10;0.10;;;;;;;;;;4958679;28;20484;-76
2023/01/11 08:36:03;;;;;;;0.20;0.20;;;;;;;;;;4957397;28;20440;-75
2023/01/11 08:38:29;;;;;;;0.10;0.10;;;;;;;;;;4957513;28;20058;-75
2023/01/11 08:40:55;;;;;;;0.10;0.10;;;;;;;;;;4957728;28;20049;-74
2023/01/11 08:43:21;;;;;;;0.10;0.10;;;;;;;;;;4958009;28;20058;-77
2023/01/11 08:45:49;;;;;;;0.10;0.10;;;;;;;;;;4957071;28;20404;-75
2023/01/11 08:48:15;;;;;;;0.10;0.10;;;;;;;;;;4947082;28;20045;-72
2023/01/11 08:50:43;;;;;;;0.10;0.10;;;;;;;;;;4956294;28;20053;-78
2023/01/11 08:53:10;;;;;;;0.10;0.10;;;;;;;;;;4957871;28;20054;-78
2023/01/11 08:55:36;;;;;;;0.10;0.10;;;;;;;;;;4956517;28;20030;-79
2023/01/11 08:58:02;;;;;;;0.10;0.10;;;;;;;;;;4973604;28;20042;-78
2023/01/11 09:00:28;;;;;;;0.10;0.10;;;;;;;;;;4956183;28;20042;-77
2023/01/11 09:02:54;;;;;;;0.10;0.10;;;;;;;;;;4956257;28;20049;-79
2023/01/11 09:05:20;;;;;;;0.10;0.10;;;;;;;;;;4975058;28;20519;-77
2023/01/11 09:07:46;;;;;;;0.10;0.10;;;;;;;;;;4957428;28;20507;-78
2023/01/11 09:10:12;;;;;;;0.10;0.10;;;;;;;;;;4957411;28;20452;-78
2023/01/11 09:12:38;;;;;;;0.10;0.10;;;;;;;;;;4955510;28;20605;-77
2023/01/11 09:15:04;;;;;;;0.10;0.10;;;;;;;;;;4956479;28;20290;-77
2023/01/11 09:17:30;;;;;;;0.10;0.10;;;;;;;;;;4957580;28;20139;-78
2023/01/11 09:19:56;;;;;;;0.00;0.00;;;;;;;;;;4957340;28;20583;-74
2023/01/11 09:22:23;;;;;;;0.10;0.10;;;;;;;;;;4985753;28;20657;-79
2023/01/11 09:24:49;;;;;;;0.10;0.10;;;;;;;;;;4956852;28;20065;-79
2023/01/11 09:27:15;;;;;;;0.52;0.52;;;;;;;;;;4956274;28;20654;-77
2023/01/11 09:29:41;;;;;;;0.10;0.10;;;;;;;;;;4956556;28;20046;-79
2023/01/11 09:32:07;;;;;;;0.10;0.10;;;;;;;;;;4957776;28;20054;-74
2023/01/11 09:34:33;;;;;;;;;;;;;;;;;;4957594;28;20136;-79
2023/01/11 09:37:02;;;;;;;0.10;0.10;;;;;;;;;;4960469;28;19929;-78
2023/01/11 09:39:28;;;;;;;0.10;0.10;;;;;;;;;;4959889;28;20069;-78
2023/01/11 09:42:04;;;;;;;0.10;0.10;;;;;;;;;;4959551;28;20811;-78
2023/01/11 09:44:32;;;;;;;0.10;0.10;;;;;;;;;;4960469;28;20750;-78
2023/01/11 09:47:17;;;;;;;0.10;0.10;;;;;;;;;;4979476;28;20053;-79
2023/01/11 09:49:54;;;;;;;0.10;0.10;;;;;;;;;;4959149;28;20042;-80
2023/01/11 09:52:28;;;;;;;0.10;0.10;;;;;;;;;;4960772;28;20034;-79
2023/01/11 09:54:54;;;;;;;0.10;0.10;;;;;;;;;;4975314;28;20107;-78
2023/01/11 09:57:22;;;;;;;0.10;0.10;;;;;;;;;;4959929;28;20074;-79
2023/01/11 10:00:01;;;;;;;0.10;0.10;;;;;;;;;;4992486;28;20584;-76
2023/01/11 10:02:27;;;;;;;;;;;;;;;;;;4976050;28;20751;-76
2023/01/11 10:04:54;;;;;;;;;;;;;;;;;;4960311;28;19925;-80
2023/01/11 10:07:21;;;;;;;;;;;;;;;;;;4992951;28;19951;-77
2023/01/11 10:09:57;;;;;;;0.10;0.10;;;;;;;;;;4958715;28;19922;-81
2023/01/11 10:12:47;;;;;;;0.10;0.10;;;;;;;;;;4947345;28;20519;-81
2023/01/11 10:15:27;;;;;;;0.10;0.10;;;;;;;;;;4973871;28;20046;-80
2023/01/11 10:18:03;;;;;;;0.15;0.15;;;;;;;;;;4960270;28;20096;-84
2023/01/11 10:20:39;;;;;;;0.10;0.10;;;;;;;;;;4979034;28;20050;-78
2023/01/11 10:23:10;;;;;;;0.10;0.10;;;;;;;;;;4958660;28;20050;-79
2023/01/11 10:25:49;;;;;;;0.10;0.10;;;;;;;;;;4978217;28;20078;-79
2023/01/11 10:28:41;;;;;;;0.10;0.10;;;;;;;;;;4959773;28;20492;-76
2023/01/11 10:31:42;;;;;;;0.10;0.10;;;;;;;;;;4979001;28;20063;-74
2023/01/11 10:40:18;;;;;;;2.00;1.75;;;;;;;;;;4959290;28;20073;-75
2023/01/11 10:42:47;;;;;;;0.10;0.10;;;;;;;;;;4959728;28;20080;-80
2023/01/11 10:45:18;;;;;;;0.10;0.10;;;;;;;;;;4958629;28;20516;-76
2023/01/11 10:47:54;;;;;;;0.10;0.10;;;;;;;;;;4958070;28;20058;-79
2023/01/11 10:50:25;;;;;;;0.10;0.10;;;;;;;;;;4977209;28;21518;-78
2023/01/11 10:52:54;;;;;;;0.10;0.10;;;;;;;;;;4959742;28;20066;-79
2023/01/11 10:55:31;;;;;;;0.10;0.10;;;;;;;;;;4991527;28;20129;-79
2023/01/11 10:58:10;;;;;;;0.10;0.10;;;;;;;;;;4957656;28;20749;-76
2023/01/11 11:00:36;;;;;;;0.10;0.10;;;;;;;;;;4958978;28;20050;-77
2023/01/11 11:03:24;;;;;;;0.10;0.10;;;;;;;;;;4958997;28;20149;-77
2023/01/11 11:05:50;;;;;;;0.10;0.10;;;;;;;;;;4958578;28;20058;-77
2023/01/11 11:08:23;;;;;;;0.10;0.10;;;;;;;;;;4958026;28;20046;-77
2023/01/11 11:10:59;;;;;;;0.10;0.10;;;;;;;;;;4958068;28;20054;-77
2023/01/11 11:13:41;;;;;;;0.20;0.20;;;;;;;;;;4948033;28;20109;-77
2023/01/11 11:16:10;;;;;;;0.10;0.10;;;;;;;;;;4957952;28;20100;-78
2023/01/11 11:18:37;;;;;;;0.10;0.10;;;;;;;;;;4957687;28;20041;-79
2023/01/11 11:21:06;;;;;;;0.20;0.20;;;;;;;;;;4958260;28;20130;-76
2023/01/11 11:23:32;;;;;;;0.10;0.10;;;;;;;;;;4957306;28;20042;-78
2023/01/11 11:26:01;;;;;;;0.10;0.10;;;;;;;;;;4959110;28;20188;-77
2023/01/11 11:28:29;;;;;;;0.10;0.10;;;;;;;;;;4957658;28;20042;-78
2023/01/11 11:30:57;;;;;;;0.20;0.20;;;;;;;;;;4958429;28;20050;-79
2023/01/11 11:33:25;;;;;;;0.10;0.10;;;;;;;;;;4957192;28;20058;-78
2023/01/11 11:35:56;;;;;;;0.10;0.10;;;;;;;;;;4958650;28;20057;-78
2023/01/11 11:38:23;;;;;;;0.10;0.10;;;;;;;;;;4941059;28;20061;-79
2023/01/11 11:40:58;;;;;;;0.10;0.10;;;;;;;;;;4958544;28;20440;-78
2023/01/11 11:43:24;;;;;;;0.10;0.10;;;;;;;;;;4958582;28;20065;-78
2023/01/11 11:46:22;;;;;;;0.10;0.10;;;;;;;;;;4930067;28;20121;-77
2023/01/11 11:49:07;;;;;;;1.63;1.00;;;;;;;;;;4908551;28;20055;-77
2023/01/11 11:51:33;;;;;;;0.10;0.10;;;;;;;;;;4938586;28;20147;-78
2023/01/11 11:54:00;;;;;;;0.10;0.10;;;;;;;;;;4939961;28;20054;-78
2023/01/11 11:56:27;;;;;;;0.10;0.10;;;;;;;;;;4939386;28;20224;-76
2023/01/11 11:58:54;;;;;;;0.00;0.00;;;;;;;;;;4935307;28;20535;-79
2023/01/11 12:01:25;;;;;;;0.10;0.10;;;;;;;;;;4937530;28;20269;-78
2023/01/11 12:03:53;;;;;;;0.10;0.10;;;;;;;;;;4938716;28;21447;-78
2023/01/11 12:06:22;;;;;;;0.10;0.10;;;;;;;;;;4937171;28;20460;-80
2023/01/11 12:08:49;;;;;;;0.10;0.10;;;;;;;;;;4930215;28;20094;-78
2023/01/11 12:11:18;;;;;;;0.10;0.10;;;;;;;;;;4940008;28;20656;-79
2023/01/11 12:13:56;;;;;;;1.67;1.58;;;;;;;;;;4910532;28;20066;-81
2023/01/11 12:16:22;;;;;;;0.10;0.10;;;;;;;;;;4973175;28;20434;-80
2023/01/11 12:18:49;;;;;;;0.10;0.10;;;;;;;;;;4921597;28;20047;-81
2023/01/11 12:21:17;;;;;;;0.25;0.25;;;;;;;;;;4945023;28;20055;-80
2023/01/11 12:23:43;;;;;;;0.00;0.00;;;;;;;;;;4955100;28;20062;-81
2023/01/11 12:26:16;;;;;;;0.10;0.10;;;;;;;;;;4957773;28;20046;-81
2023/01/11 12:29:09;;;;;;;0.10;0.10;;;;;;;;;;4957376;28;20692;-82
2023/01/11 12:31:45;;;;;;;0.10;0.10;;;;;;;;;;4954596;28;20452;-81
2023/01/11 12:34:33;;;;;;;0.80;0.80;;;;;;;;;;4945412;28;20063;-81
2023/01/11 12:37:11;;;;;;;0.10;0.10;;;;;;;;;;4936926;28;20084;-81
2023/01/11 12:39:47;;;;;;;0.38;0.38;;;;;;;;;;4935799;28;20880;-81
2023/01/11 12:42:23;;;;;;;0.10;0.10;;;;;;;;;;4936344;28;20047;-81
2023/01/11 12:45:08;;;;;;;0.10;0.10;;;;;;;;;;4939505;28;20051;-81
2023/01/11 12:47:34;;;;;;;0.10;0.10;;;;;;;;;;4956935;28;20083;-81
2023/01/11 12:50:19;;;;;;;0.10;0.10;;;;;;;;;;4956658;28;20093;-81
2023/01/11 12:52:45;;;;;;;0.10;0.10;;;;;;;;;;4955639;28;20107;-81
2023/01/11 12:55:11;;;;;;;0.10;0.10;;;;;;;;;;4956773;28;20057;-81
2023/01/11 12:57:59;;;;;;;0.10;0.10;;;;;;;;;;4956690;28;21027;-82
2023/01/11 13:00:46;;;;;;;7.20;1.23;;;;;;;;;;4956044;28;20056;-80
2023/01/11 13:03:22;;;;;;;3.53;1.00;;;;;;;;;;4958702;28;20058;-80
2023/01/11 13:05:56;;;;;;;1.10;1.00;;;;;;;;;;4955877;28;21106;-82
2023/01/11 13:08:34;;;;;;;0.10;0.10;;;;;;;;;;4955398;28;20180;-80
2023/01/11 13:11:33;;;;;;;0.10;0.10;;;;;;;;;;4955273;28;20572;-81
2023/01/11 13:14:20;;;;;;;0.10;0.10;;;;;;;;;;4956666;28;20943;-81
2023/01/11 13:16:50;;;;;;;0.10;0.10;;;;;;;;;;4964354;28;20062;-81
2023/01/11 13:19:20;;;;;;;0.10;0.10;;;;;;;;;;4952071;28;20138;-81
2023/01/11 13:21:52;;;;;;;0.57;0.57;;;;;;;;;;4955114;28;20054;-82
2023/01/11 13:24:27;;;;;;;0.10;0.10;;;;;;;;;;4971008;28;20130;-82
2023/01/11 13:27:01;;;;;;;0.00;0.00;;;;;;;;;;4969876;28;20462;-81
2023/01/11 13:29:27;;;;;;;;;;;;;;;;;;4975884;28;20125;-82
2023/01/11 13:31:54;;;;;;;0.10;0.10;;;;;;;;;;4971466;28;19936;-82
2023/01/11 13:34:26;;;;;;;0.10;0.10;;;;;;;;;;4975138;28;20139;-81
2023/01/11 13:36:58;;;;;;;0.10;0.10;;;;;;;;;;4956521;28;20069;-82
2023/01/11 13:39:45;;;;;;;3.80;2.45;;;;;;;;;;4956690;28;20082;-83
2023/01/11 13:42:22;;;;;;;0.10;0.10;;;;;;;;;;4974945;28;20149;-81
2023/01/11 13:45:01;;;;;;;0.20;0.20;;;;;;;;;;4955617;28;20050;-81
2023/01/11 13:47:39;;;;;;;0.10;0.10;;;;;;;;;;4956407;28;20061;-80
2023/01/11 13:50:12;;;;;;;0.65;0.65;;;;;;;;;;4956304;28;20055;-82
2023/01/11 13:52:41;;;;;;;0.10;0.10;;;;;;;;;;4986641;28;20781;-82
2023/01/11 13:55:29;;;;;;;0.10;0.10;;;;;;;;;;4956118;28;20046;-82
2023/01/11 13:58:05;;;;;;;0.10;0.10;;;;;;;;;;4955803;28;20099;-82
2023/01/11 14:00:43;;;;;;;0.75;0.75;;;;;;;;;;4955365;28;21426;-83
2023/01/11 14:03:15;;;;;;;0.00;0.00;;;;;;;;;;4955917;28;20654;-83
2023/01/11 14:06:04;;;;;;;0.10;0.10;;;;;;;;;;4976237;28;21839;-82
2023/01/11 14:08:42;;;;;;;0.10;0.10;;;;;;;;;;4977967;28;20072;-82
2023/01/11 14:11:16;;;;;;;0.10;0.10;;;;;;;;;;4955190;28;20055;-83
2023/01/11 14:16:47;;;;;;;0.10;0.10;;;;;;;;;;4974185;28;20075;-82
2023/01/11 14:19:13;;;;;;;0.10;0.10;;;;;;;;;;4956084;28;20160;-82
2023/01/11 14:21:56;;;;;;;0.10;0.10;;;;;;;;;;4956753;28;20054;-82
2023/01/11 14:24:23;;;;;;;0.10;0.10;;;;;;;;;;4947726;28;20055;-82
2023/01/11 14:27:07;;;;;;;0.10;0.10;;;;;;;;;;4958779;28;20054;-82
2023/01/11 14:29:49;;;;;;;0.17;0.17;;;;;;;;;;4943958;28;20073;-83
2023/01/11 14:32:41;;;;;;;0.00;0.00;;;;;;;;;;4959940;28;20057;-83
2023/01/11 14:35:26;;;;;;;0.10;0.10;;;;;;;;;;4937750;28;20061;-83
2023/01/11 14:38:04;;;;;;;0.10;0.10;;;;;;;;;;4958930;28;20512;-80
2023/01/11 14:40:38;;;;;;;0.10;0.10;;;;;;;;;;4957923;28;20053;-81
2023/01/11 14:43:22;;;;;;;0.10;0.10;;;;;;;;;;4958461;28;20795;-82
2023/01/11 14:45:57;;;;;;;0.70;0.70;;;;;;;;;;4958198;28;20536;-81
2023/01/11 14:48:24;;;;;;;0.10;0.10;;;;;;;;;;4959220;28;20111;-80
2023/01/11 14:50:57;;;;;;;0.10;0.10;;;;;;;;;;4957750;28;20133;-81
2023/01/11 14:53:26;;;;;;;0.10;0.10;;;;;;;;;;4978058;28;21505;-81
2023/01/11 14:55:52;;;;;;;0.10;0.10;;;;;;;;;;4978900;28;20065;-82
2023/01/11 14:58:24;;;;;;;0.10;0.10;;;;;;;;;;4947417;28;20046;-81
2023/01/11 15:00:53;;;;;;;0.10;0.10;;;;;;;;;;4973977;28;20054;-82
2023/01/11 15:03:20;;;;;;;0.10;0.10;;;;;;;;;;4951471;28;20052;-79
2023/01/11 15:05:58;;;;;;;0.10;0.10;;;;;;;;;;4970771;28;20053;-78
2023/01/11 15:08:25;;;;;;;0.10;0.10;;;;;;;;;;4974100;28;20040;-79
2023/01/11 15:10:55;;;;;;;0.10;0.10;;;;;;;;;;4958025;28;20111;-79
2023/01/11 15:13:48;;;;;;;0.10;0.10;;;;;;;;;;4956467;28;20050;-80
2023/01/11 15:19:07;;;;;;;0.10;0.10;;;;;;;;;;4956428;28;20080;-80
2023/01/11 15:21:35;;;;;;;0.10;0.10;;;;;;;;;;4957841;28;20053;-80
2023/01/11 15:24:01;;;;;;;0.10;0.10;;;;;;;;;;4958146;28;20078;-80
2023/01/11 15:26:28;;;;;;;0.10;0.10;;;;;;;;;;4957450;28;20689;-80
2023/01/11 15:28:57;;;;;;;0.10;0.10;;;;;;;;;;4990607;28;20112;-80
2023/01/11 15:31:32;;;;;;;0.10;0.10;;;;;;;;;;4956144;28;20038;-78
2023/01/11 15:34:03;;;;;;;0.65;0.65;;;;;;;;;;4956902;28;20049;-80
2023/01/11 15:36:47;;;;;;;0.10;0.10;;;;;;;;;;4958115;28;20050;-80
2023/01/11 15:39:14;;;;;;;0.10;0.10;;;;;;;;;;4942786;28;20054;-80
2023/01/11 15:44:46;;;;;;;0.10;0.10;;;;;;;;;;4957539;28;20053;-80